sensor_id;sensor_type;location;lat;lon;timestamp;pressure;altitude;pressure_sealevel;temperature;humidity
65897;BME280;52677;50.898;10.854;2024-02-26T00:00:19;96998.16;;;-2.01;100.00
65897;BME280;52677;50.898;10.854;2024-02-26T00:02:19;97000.44;;;-2.03;100.00
65897;BME280;52677;50.898;10.854;2024-02-26T00:04:20;97000.44;;;-2.03;100.00
65897;BME280;52677;50.898;10.854;2024-02-26T00:06:21;97003.13;;;-2.03;100.00
65897;BME280;52677;50.898;10.854;2024-02-26T00:08:22;96995.69;;;-2.06;100.00
65897;BME280;52677;50.898;10.854;2024-02-26T00:10:23;96990.09;;;-2.09;100.00
65897;BME280;52677;50.898;10.854;2024-02-26T00:12:24;96987.28;;;-2.13;100.00
65897;BME280;52677;50.898;10.854;2024-02-26T00:14:24;96981.25;;;-2.18;100.00
65897;BME280;52677;50.898;10.854;2024-02-26T00:16:24;96977.66;;;-2.22;100.00
65897;BME280;52677;50.898;10.854;2024-02-26T00:18:25;96973.31;;;-2.23;100.00
65897;BME280;52677;50.898;10.854;2024-02-26T00:20:25;96973.66;;;-2.25;100.00
65897;BME280;52677;50.898;10.854;2024-02-26T00:22:26;96968.25;;;-2.25;100.00
65897;BME280;52677;50.898;10.854;2024-02-26T00:24:26;96974.44;;;-2.24;100.00
65897;BME280;52677;50.898;10.854;2024-02-26T00:26:27;96971.44;;;-2.23;100.00
65897;BME280;52677;50.898;10.854;2024-02-26T00:28:27;96972.88;;;-2.26;100.00
65897;BME280;52677;50.898;10.854;2024-02-26T00:30:29;96962.38;;;-2.27;100.00
65897;BME280;52677;50.898;10.854;2024-02-26T00:32:29;96967.13;;;-2.24;100.00
65897;BME280;52677;50.898;10.854;2024-02-26T00:34:30;96961.50;;;-2.19;100.00
65897;BME280;52677;50.898;10.854;2024-02-26T00:36:31;96968.84;;;-2.19;100.00
65897;BME280;52677;50.898;10.854;2024-02-26T00:38:31;96961.50;;;-2.19;100.00
65897;BME280;52677;50.898;10.854;2024-02-26T00:40:32;96959.59;;;-2.18;100.00
65897;BME280;52677;50.898;10.854;2024-02-26T00:42:32;96951.19;;;-2.26;100.00
65897;BME280;52677;50.898;10.854;2024-02-26T00:44:33;96958.88;;;-2.28;100.00
65897;BME280;52677;50.898;10.854;2024-02-26T00:46:33;96956.34;;;-2.33;100.00
65897;BME280;52677;50.898;10.854;2024-02-26T00:48:33;96962.09;;;-2.34;100.00
65897;BME280;52677;50.898;10.854;2024-02-26T00:50:34;96950.03;;;-2.37;100.00
65897;BME280;52677;50.898;10.854;2024-02-26T00:52:35;96955.44;;;-2.37;100.00
65897;BME280;52677;50.898;10.854;2024-02-26T00:54:35;96956.13;;;-2.40;100.00
65897;BME280;52677;50.898;10.854;2024-02-26T00:56:35;96961.38;;;-2.43;100.00
65897;BME280;52677;50.898;10.854;2024-02-26T00:58:36;96966.78;;;-2.43;100.00
65897;BME280;52677;50.898;10.854;2024-02-26T01:00:36;96965.22;;;-2.44;100.00
65897;BME280;52677;50.898;10.854;2024-02-26T01:02:37;96964.53;;;-2.41;100.00
65897;BME280;52677;50.898;10.854;2024-02-26T01:04:38;96964.16;;;-2.31;100.00
65897;BME280;52677;50.898;10.854;2024-02-26T01:06:38;96964.16;;;-2.31;100.00
65897;BME280;52677;50.898;10.854;2024-02-26T01:08:39;96957.13;;;-2.32;100.00
65897;BME280;52677;50.898;10.854;2024-02-26T01:10:39;96955.91;;;-2.35;100.00
65897;BME280;52677;50.898;10.854;2024-02-26T01:12:40;96959.84;;;-2.32;100.00
65897;BME280;52677;50.898;10.854;2024-02-26T01:14:40;96949.84;;;-2.32;100.00
65897;BME280;52677;50.898;10.854;2024-02-26T01:16:40;96953.53;;;-2.36;100.00
65897;BME280;52677;50.898;10.854;2024-02-26T01:18:41;96945.59;;;-2.41;100.00
65897;BME280;52677;50.898;10.854;2024-02-26T01:20:41;96947.72;;;-2.47;100.00
65897;BME280;52677;50.898;10.854;2024-02-26T01:22:42;96945.31;;;-2.48;100.00
65897;BME280;52677;50.898;10.854;2024-02-26T01:24:43;96947.72;;;-2.47;100.00
65897;BME280;52677;50.898;10.854;2024-02-26T01:26:43;96955.50;;;-2.45;100.00
65897;BME280;52677;50.898;10.854;2024-02-26T01:28:43;96946.59;;;-2.46;100.00
65897;BME280;52677;50.898;10.854;2024-02-26T01:30:44;96951.34;;;-2.43;100.00
65897;BME280;52677;50.898;10.854;2024-02-26T01:32:44;96950.69;;;-2.40;100.00
65897;BME280;52677;50.898;10.854;2024-02-26T01:34:44;96948.97;;;-2.44;100.00
65897;BME280;52677;50.898;10.854;2024-02-26T01:36:45;96954.19;;;-2.39;100.00
65897;BME280;52677;50.898;10.854;2024-02-26T01:38:45;96943.13;;;-2.34;100.00
65897;BME280;52677;50.898;10.854;2024-02-26T01:40:46;96956.03;;;-2.31;100.00
65897;BME280;52677;50.898;10.854;2024-02-26T01:42:46;96946.78;;;-2.30;100.00
65897;BME280;52677;50.898;10.854;2024-02-26T01:44:46;96944.66;;;-2.24;100.00
65897;BME280;52677;50.898;10.854;2024-02-26T01:46:47;96943.06;;;-2.26;100.00
65897;BME280;52677;50.898;10.854;2024-02-26T01:48:48;96943.75;;;-2.29;100.00
65897;BME280;52677;50.898;10.854;2024-02-26T01:50:50;96939.97;;;-2.36;100.00
65897;BME280;52677;50.898;10.854;2024-02-26T01:52:51;96942.88;;;-2.41;100.00
65897;BME280;52677;50.898;10.854;2024-02-26T01:54:52;96950.09;;;-2.45;100.00
65897;BME280;52677;50.898;10.854;2024-02-26T01:56:53;96952.28;;;-2.39;100.00
65897;BME280;52677;50.898;10.854;2024-02-26T01:58:54;96950.47;;;-2.35;100.00
65897;BME280;52677;50.898;10.854;2024-02-26T02:00:54;96946.06;;;-2.39;100.00
65897;BME280;52677;50.898;10.854;2024-02-26T02:02:55;96949.09;;;-2.41;100.00
65897;BME280;52677;50.898;10.854;2024-02-26T02:04:56;96951.78;;;-2.41;100.00
65897;BME280;52677;50.898;10.854;2024-02-26T02:06:57;96952.06;;;-2.34;100.00
65897;BME280;52677;50.898;10.854;2024-02-26T02:08:58;96950.28;;;-2.30;100.00
65897;BME280;52677;50.898;10.854;2024-02-26T02:11:00;96945.13;;;-2.22;100.00
65897;BME280;52677;50.898;10.854;2024-02-26T02:13:01;96944.47;;;-2.19;100.00
65897;BME280;52677;50.898;10.854;2024-02-26T02:15:01;96956.41;;;-2.20;100.00
65897;BME280;52677;50.898;10.854;2024-02-26T02:17:02;96953.56;;;-2.24;100.00
65897;BME280;52677;50.898;10.854;2024-02-26T02:19:02;96947.25;;;-2.28;100.00
65897;BME280;52677;50.898;10.854;2024-02-26T02:21:03;96953.00;;;-2.30;100.00
65897;BME280;52677;50.898;10.854;2024-02-26T02:23:03;96943.94;;;-2.34;100.00
65897;BME280;52677;50.898;10.854;2024-02-26T02:25:04;96942.81;;;-2.33;100.00
65897;BME280;52677;50.898;10.854;2024-02-26T02:27:05;96945.22;;;-2.31;100.00
65897;BME280;52677;50.898;10.854;2024-02-26T02:29:06;96934.56;;;-2.36;100.00
65897;BME280;52677;50.898;10.854;2024-02-26T02:31:07;96942.34;;;-2.35;100.00
65897;BME280;52677;50.898;10.854;2024-02-26T02:33:07;96942.69;;;-2.36;100.00
65897;BME280;52677;50.898;10.854;2024-02-26T02:35:08;96940.31;;;-2.38;100.00
65897;BME280;52677;50.898;10.854;2024-02-26T02:37:08;96938.81;;;-2.47;100.00
65897;BME280;52677;50.898;10.854;2024-02-26T02:39:09;96943.28;;;-2.51;100.00
65897;BME280;52677;50.898;10.854;2024-02-26T02:41:09;96935.94;;;-2.51;100.00
65897;BME280;52677;50.898;10.854;2024-02-26T02:43:09;96944.84;;;-2.50;100.00
65897;BME280;52677;50.898;10.854;2024-02-26T02:45:10;96943.72;;;-2.49;100.00
65897;BME280;52677;50.898;10.854;2024-02-26T02:47:10;96944.06;;;-2.51;100.00
65897;BME280;52677;50.898;10.854;2024-02-26T02:49:10;96954.78;;;-2.55;100.00
65897;BME280;52677;50.898;10.854;2024-02-26T02:51:11;96947.00;;;-2.56;100.00
65897;BME280;52677;50.898;10.854;2024-02-26T02:53:11;96952.88;;;-2.54;100.00
65897;BME280;52677;50.898;10.854;2024-02-26T02:55:12;96951.75;;;-2.53;100.00
65897;BME280;52677;50.898;10.854;2024-02-26T02:57:12;96963.47;;;-2.49;100.00
65897;BME280;52677;50.898;10.854;2024-02-26T02:59:13;96956.81;;;-2.51;100.00
65897;BME280;52677;50.898;10.854;2024-02-26T03:01:13;96963.34;;;-2.52;100.00
65897;BME280;52677;50.898;10.854;2024-02-26T03:03:14;96962.41;;;-2.57;100.00
65897;BME280;52677;50.898;10.854;2024-02-26T03:05:14;96955.97;;;-2.64;100.00
65897;BME280;52677;50.898;10.854;2024-02-26T03:07:14;96963.75;;;-2.63;100.00
65897;BME280;52677;50.898;10.854;2024-02-26T03:09:15;96970.59;;;-2.65;100.00
65897;BME280;52677;50.898;10.854;2024-02-26T03:11:15;96968.56;;;-2.68;100.00
65897;BME280;52677;50.898;10.854;2024-02-26T03:13:16;96964.59;;;-2.71;100.00
65897;BME280;52677;50.898;10.854;2024-02-26T03:15:16;96978.94;;;-2.70;100.00
65897;BME280;52677;50.898;10.854;2024-02-26T03:17:16;96975.09;;;-2.69;100.00
65897;BME280;52677;50.898;10.854;2024-02-26T03:19:17;96970.47;;;-2.69;100.00
65897;BME280;52677;50.898;10.854;2024-02-26T03:21:18;96967.94;;;-2.74;100.00
65897;BME280;52677;50.898;10.854;2024-02-26T03:23:18;96962.75;;;-2.79;100.00
65897;BME280;52677;50.898;10.854;2024-02-26T03:25:18;96968.50;;;-2.80;100.00
65897;BME280;52677;50.898;10.854;2024-02-26T03:27:19;96968.34;;;-2.84;100.00
65897;BME280;52677;50.898;10.854;2024-02-26T03:29:19;96973.41;;;-2.83;100.00
65897;BME280;52677;50.898;10.854;2024-02-26T03:31:19;96964.84;;;-2.85;100.00
65897;BME280;52677;50.898;10.854;2024-02-26T03:33:21;96968.50;;;-2.80;100.00
65897;BME280;52677;50.898;10.854;2024-02-26T03:35:22;96964.94;;;-2.72;100.00
65897;BME280;52677;50.898;10.854;2024-02-26T03:37:22;96967.78;;;-2.69;100.00
65897;BME280;52677;50.898;10.854;2024-02-26T03:39:22;96969.97;;;-2.62;100.00
65897;BME280;52677;50.898;10.854;2024-02-26T03:41:23;96966.25;;;-2.58;100.00
65897;BME280;52677;50.898;10.854;2024-02-26T03:43:23;96971.66;;;-2.58;100.00
65897;BME280;52677;50.898;10.854;2024-02-26T03:45:23;96966.75;;;-2.56;100.00
65897;BME280;52677;50.898;10.854;2024-02-26T03:47:26;96964.81;;;-2.55;100.00
65897;BME280;52677;50.898;10.854;2024-02-26T03:49:26;96976.91;;;-2.52;100.00
65897;BME280;52677;50.898;10.854;2024-02-26T03:51:26;96963.34;;;-2.52;100.00
65897;BME280;52677;50.898;10.854;2024-02-26T03:53:31;96968.00;;;-2.53;100.00
65897;BME280;52677;50.898;10.854;2024-02-26T03:55:31;96973.06;;;-2.51;100.00
65897;BME280;52677;50.898;10.854;2024-02-26T03:57:32;96966.19;;;-2.49;100.00
65897;BME280;52677;50.898;10.854;2024-02-26T03:59:32;96964.09;;;-2.43;100.00
65897;BME280;52677;50.898;10.854;2024-02-26T04:01:32;96966.47;;;-2.42;100.00
65897;BME280;52677;50.898;10.854;2024-02-26T04:03:33;96956.28;;;-2.45;100.00
65897;BME280;52677;50.898;10.854;2024-02-26T04:05:33;96961.09;;;-2.50;100.00
65897;BME280;52677;50.898;10.854;2024-02-26T04:07:33;96963.34;;;-2.52;100.00
65897;BME280;52677;50.898;10.854;2024-02-26T04:09:34;96970.81;;;-2.49;100.00
65897;BME280;52677;50.898;10.854;2024-02-26T04:11:34;96965.94;;;-2.56;100.00
65897;BME280;52677;50.898;10.854;2024-02-26T04:13:34;96959.06;;;-2.53;100.00
65897;BME280;52677;50.898;10.854;2024-02-26T04:15:35;96964.81;;;-2.55;100.00
65897;BME280;52677;50.898;10.854;2024-02-26T04:17:36;96956.69;;;-2.55;100.00
65897;BME280;52677;50.898;10.854;2024-02-26T04:19:36;96948.56;;;-2.55;100.00
65897;BME280;52677;50.898;10.854;2024-02-26T04:21:37;96958.47;;;-2.59;100.00
65897;BME280;52677;50.898;10.854;2024-02-26T04:23:37;96955.91;;;-2.56;100.00
65897;BME280;52677;50.898;10.854;2024-02-26T04:25:37;96956.69;;;-2.55;100.00
65897;BME280;52677;50.898;10.854;2024-02-26T04:27:38;96961.56;;;-2.48;100.00
65897;BME280;52677;50.898;10.854;2024-02-26T04:29:38;96961.91;;;-2.50;100.00
65897;BME280;52677;50.898;10.854;2024-02-26T04:31:38;96962.13;;;-2.55;100.00
65897;BME280;52677;50.898;10.854;2024-02-26T04:33:39;96956.09;;;-2.61;100.00
65897;BME280;52677;50.898;10.854;2024-02-26T04:35:42;96954.06;;;-2.64;100.00
65897;BME280;52677;50.898;10.854;2024-02-26T04:37:42;96966.91;;;-2.61;100.00
65897;BME280;52677;50.898;10.854;2024-02-26T04:39:43;96966.13;;;-2.61;100.00
65897;BME280;52677;50.898;10.854;2024-02-26T04:41:43;96973.41;;;-2.53;100.00
65897;BME280;52677;50.898;10.854;2024-02-26T04:43:43;96971.59;;;-2.49;100.00
65897;BME280;52677;50.898;10.854;2024-02-26T04:45:44;96974.00;;;-2.47;100.00
65897;BME280;52677;50.898;10.854;2024-02-26T04:47:44;96967.47;;;-2.46;100.00
65897;BME280;52677;50.898;10.854;2024-02-26T04:49:44;96957.16;;;-2.53;100.00
65897;BME280;52677;50.898;10.854;2024-02-26T04:51:45;96962.56;;;-2.53;100.00
65897;BME280;52677;50.898;10.854;2024-02-26T04:53:45;96960.19;;;-2.55;100.00
65897;BME280;52677;50.898;10.854;2024-02-26T04:55:45;96964.94;;;-2.51;100.00
65897;BME280;52677;50.898;10.854;2024-02-26T04:57:46;96971.16;;;-2.51;100.00
65897;BME280;52677;50.898;10.854;2024-02-26T04:59:46;96970.03;;;-2.50;100.00
65897;BME280;52677;50.898;10.854;2024-02-26T05:01:47;96965.72;;;-2.51;100.00
65897;BME280;52677;50.898;10.854;2024-02-26T05:03:48;96983.78;;;-2.55;100.00
65897;BME280;52677;50.898;10.854;2024-02-26T05:05:49;96974.53;;;-2.54;100.00
65897;BME280;52677;50.898;10.854;2024-02-26T05:07:49;96972.63;;;-2.53;100.00
65897;BME280;52677;50.898;10.854;2024-02-26T05:09:49;96980.84;;;-2.50;100.00
65897;BME280;52677;50.898;10.854;2024-02-26T05:11:50;96977.97;;;-2.45;100.00
65897;BME280;52677;50.898;10.854;2024-02-26T05:13:50;96978.75;;;-2.44;100.00
65897;BME280;52677;50.898;10.854;2024-02-26T05:15:50;96979.22;;;-2.42;100.00
65897;BME280;52677;50.898;10.854;2024-02-26T05:17:52;96978.09;;;-2.41;100.00
65897;BME280;52677;50.898;10.854;2024-02-26T05:19:52;96965.66;;;-2.42;100.00
65897;BME280;52677;50.898;10.854;2024-02-26T05:21:53;96975.72;;;-2.43;100.00
65897;BME280;52677;50.898;10.854;2024-02-26T05:23:53;96973.78;;;-2.42;100.00
65897;BME280;52677;50.898;10.854;2024-02-26T05:25:54;96976.16;;;-2.41;100.00
65897;BME280;52677;50.898;10.854;2024-02-26T05:27:54;96985.75;;;-2.43;100.00
65897;BME280;52677;50.898;10.854;2024-02-26T05:29:55;96985.63;;;-2.47;100.00
65897;BME280;52677;50.898;10.854;2024-02-26T05:31:55;96981.66;;;-2.49;100.00
65897;BME280;52677;50.898;10.854;2024-02-26T05:33:55;96986.59;;;-2.51;100.00
65897;BME280;52677;50.898;10.854;2024-02-26T05:35:56;96981.97;;;-2.51;100.00
65897;BME280;52677;50.898;10.854;2024-02-26T05:37:56;96984.25;;;-2.53;100.00
65897;BME280;52677;50.898;10.854;2024-02-26T05:39:56;96981.66;;;-2.49;100.00
65897;BME280;52677;50.898;10.854;2024-02-26T05:41:57;96979.72;;;-2.49;100.00
65897;BME280;52677;50.898;10.854;2024-02-26T05:43:58;96972.41;;;-2.48;100.00
65897;BME280;52677;50.898;10.854;2024-02-26T05:45:58;96975.25;;;-2.45;100.00
65897;BME280;52677;50.898;10.854;2024-02-26T05:47:58;96977.28;;;-2.42;100.00
65897;BME280;52677;50.898;10.854;2024-02-26T05:49:59;96974.06;;;-2.35;100.00
65897;BME280;52677;50.898;10.854;2024-02-26T05:52:00;96976.59;;;-2.30;100.00
65897;BME280;52677;50.898;10.854;2024-02-26T05:54:01;96982.91;;;-2.26;100.00
65897;BME280;52677;50.898;10.854;2024-02-26T05:56:01;96989.13;;;-2.26;100.00
65897;BME280;52677;50.898;10.854;2024-02-26T05:58:02;96983.84;;;-2.22;100.00
65897;BME280;52677;50.898;10.854;2024-02-26T06:00:02;96985.78;;;-2.22;100.00
65897;BME280;52677;50.898;10.854;2024-02-26T06:02:06;96983.38;;;-2.24;100.00
65897;BME280;52677;50.898;10.854;2024-02-26T06:04:06;96991.19;;;-2.22;100.00
65897;BME280;52677;50.898;10.854;2024-02-26T06:06:06;96991.19;;;-2.22;100.00
65897;BME280;52677;50.898;10.854;2024-02-26T06:08:07;96994.53;;;-2.26;100.00
65897;BME280;52677;50.898;10.854;2024-02-26T06:10:07;96996.47;;;-2.26;100.00
65897;BME280;52677;50.898;10.854;2024-02-26T06:12:08;96994.53;;;-2.26;100.00
65897;BME280;52677;50.898;10.854;2024-02-26T06:14:08;97002.66;;;-2.26;100.00
65897;BME280;52677;50.898;10.854;2024-02-26T06:16:10;97003.69;;;-2.30;100.00
65897;BME280;52677;50.898;10.854;2024-02-26T06:18:10;97024.88;;;-2.32;100.00
65897;BME280;52677;50.898;10.854;2024-02-26T06:20:11;97020.56;;;-2.33;100.00
65897;BME280;52677;50.898;10.854;2024-02-26T06:22:12;97029.81;;;-2.34;100.00
65897;BME280;52677;50.898;10.854;2024-02-26T06:24:13;97026.00;;;-2.33;100.00
65897;BME280;52677;50.898;10.854;2024-02-26T06:26:13;97035.41;;;-2.31;100.00
65897;BME280;52677;50.898;10.854;2024-02-26T06:28:13;97039.34;;;-2.28;100.00
65897;BME280;52677;50.898;10.854;2024-02-26T06:30:14;97040.25;;;-2.24;100.00
65897;BME280;52677;50.898;10.854;2024-02-26T06:32:14;97043.47;;;-2.22;100.00
65897;BME280;52677;50.898;10.854;2024-02-26T06:34:15;97030.03;;;-2.18;100.00
65897;BME280;52677;50.898;10.854;2024-02-26T06:36:15;97033.34;;;-2.13;100.00
65897;BME280;52677;50.898;10.854;2024-02-26T06:38:16;97036.97;;;-2.09;100.00
65897;BME280;52677;50.898;10.854;2024-02-26T06:40:17;97036.44;;;-2.02;100.00
65897;BME280;52677;50.898;10.854;2024-02-26T06:42:18;97036.38;;;-1.93;100.00
65897;BME280;52677;50.898;10.854;2024-02-26T06:44:18;97046.34;;;-1.85;100.00
65897;BME280;52677;50.898;10.854;2024-02-26T06:46:18;97052.03;;;-1.78;100.00
65897;BME280;52677;50.898;10.854;2024-02-26T06:48:19;97044.50;;;-1.73;100.00
65897;BME280;52677;50.898;10.854;2024-02-26T06:50:19;97050.38;;;-1.71;100.00
65897;BME280;52677;50.898;10.854;2024-02-26T06:52:19;97047.00;;;-1.67;100.00
65897;BME280;52677;50.898;10.854;2024-02-26T06:54:20;97053.34;;;-1.63;100.00
65897;BME280;52677;50.898;10.854;2024-02-26T06:56:20;97051.44;;;-1.63;100.00
65897;BME280;52677;50.898;10.854;2024-02-26T06:58:20;97049.50;;;-1.62;100.00
65897;BME280;52677;50.898;10.854;2024-02-26T07:00:21;97047.25;;;-1.60;100.00
65897;BME280;52677;50.898;10.854;2024-02-26T07:02:21;97055.53;;;-1.57;100.00
65897;BME280;52677;50.898;10.854;2024-02-26T07:04:21;97052.59;;;-1.52;100.00
65897;BME280;52677;50.898;10.854;2024-02-26T07:06:22;97063.09;;;-1.50;100.00
65897;BME280;52677;50.898;10.854;2024-02-26T07:08:22;97060.19;;;-1.45;100.00
65897;BME280;52677;50.898;10.854;2024-02-26T07:10:22;97070.06;;;-1.40;100.00
65897;BME280;52677;50.898;10.854;2024-02-26T07:12:23;97065.41;;;-1.40;100.00
65897;BME280;52677;50.898;10.854;2024-02-26T07:14:23;97071.75;;;-1.36;100.00
65897;BME280;52677;50.898;10.854;2024-02-26T07:16:24;97074.25;;;-1.31;100.00
65897;BME280;52677;50.898;10.854;2024-02-26T07:18:25;97073.59;;;-1.28;100.00
65897;BME280;52677;50.898;10.854;2024-02-26T07:20:25;97084.88;;;-1.26;100.00
65897;BME280;52677;50.898;10.854;2024-02-26T07:22:25;97082.31;;;-1.22;100.00
65897;BME280;52677;50.898;10.854;2024-02-26T07:24:28;97079.72;;;-1.19;100.00
65897;BME280;52677;50.898;10.854;2024-02-26T07:26:29;97087.66;;;-1.14;100.00
65897;BME280;52677;50.898;10.854;2024-02-26T07:28:30;97085.38;;;-1.11;100.00
65897;BME280;52677;50.898;10.854;2024-02-26T07:30:31;97084.16;;;-1.14;100.00
65897;BME280;52677;50.898;10.854;2024-02-26T07:32:31;97082.22;;;-1.14;100.00
65897;BME280;52677;50.898;10.854;2024-02-26T07:34:31;97089.25;;;-1.13;100.00
65897;BME280;52677;50.898;10.854;2024-02-26T07:36:32;97082.22;;;-1.14;100.00
65897;BME280;52677;50.898;10.854;2024-02-26T07:38:32;97086.38;;;-1.16;100.00
65897;BME280;52677;50.898;10.854;2024-02-26T07:40:32;97076.56;;;-1.08;100.00
65897;BME280;52677;50.898;10.854;2024-02-26T07:42:33;97081.34;;;-1.05;100.00
65897;BME280;52677;50.898;10.854;2024-02-26T07:44:33;97073.31;;;-1.02;100.00
65897;BME280;52677;50.898;10.854;2024-02-26T07:46:34;97076.94;;;-0.98;100.00
65897;BME280;52677;50.898;10.854;2024-02-26T07:48:34;97074.34;;;-0.94;100.00
65897;BME280;52677;50.898;10.854;2024-02-26T07:50:34;97075.25;;;-0.90;100.00
65897;BME280;52677;50.898;10.854;2024-02-26T07:52:35;97089.97;;;-0.79;100.00
65897;BME280;52677;50.898;10.854;2024-02-26T07:54:35;97090.44;;;-0.77;100.00
65897;BME280;52677;50.898;10.854;2024-02-26T07:56:36;97087.06;;;-0.74;100.00
65897;BME280;52677;50.898;10.854;2024-02-26T07:58:36;97090.22;;;-0.72;100.00
65897;BME280;52677;50.898;10.854;2024-02-26T08:00:36;97089.53;;;-0.69;100.00
65897;BME280;52677;50.898;10.854;2024-02-26T08:02:37;97097.81;;;-0.65;100.00
65897;BME280;52677;50.898;10.854;2024-02-26T08:04:37;97088.28;;;-0.59;100.00
65897;BME280;52677;50.898;10.854;2024-02-26T08:06:37;97084.13;;;-0.57;100.00
65897;BME280;52677;50.898;10.854;2024-02-26T08:08:38;97092.81;;;-0.51;100.00
65897;BME280;52677;50.898;10.854;2024-02-26T08:10:38;97092.59;;;-0.46;100.00
65897;BME280;52677;50.898;10.854;2024-02-26T08:12:38;97096.69;;;-0.40;100.00
65897;BME280;52677;50.898;10.854;2024-02-26T08:14:39;97100.31;;;-0.36;100.00
65897;BME280;52677;50.898;10.854;2024-02-26T08:16:40;97095.78;;;-0.32;100.00
65897;BME280;52677;50.898;10.854;2024-02-26T08:18:40;97104.59;;;-0.22;100.00
65897;BME280;52677;50.898;10.854;2024-02-26T08:20:40;97099.41;;;-0.15;100.00
65897;BME280;52677;50.898;10.854;2024-02-26T08:22:41;97099.63;;;-0.08;100.00
65897;BME280;52677;50.898;10.854;2024-02-26T08:24:42;97100.16;;;-0.03;100.00
65897;BME280;52677;50.898;10.854;2024-02-26T08:26:42;97096.88;;;0.04;100.00
65897;BME280;52677;50.898;10.854;2024-02-26T08:28:43;97101.81;;;0.14;100.00
65897;BME280;52677;50.898;10.854;2024-02-26T08:30:44;97100.13;;;0.22;100.00
65897;BME280;52677;50.898;10.854;2024-02-26T08:32:45;97100.56;;;0.24;100.00
65897;BME280;52677;50.898;10.854;2024-02-26T08:34:46;97103.84;;;0.30;100.00
65897;BME280;52677;50.898;10.854;2024-02-26T08:36:46;97102.81;;;0.34;100.00
65897;BME280;52677;50.898;10.854;2024-02-26T08:38:49;97103.69;;;0.38;100.00
65897;BME280;52677;50.898;10.854;2024-02-26T08:40:49;97108.44;;;0.41;100.00
65897;BME280;52677;50.898;10.854;2024-02-26T08:42:49;97101.19;;;0.45;100.00
65897;BME280;52677;50.898;10.854;2024-02-26T08:44:50;97112.63;;;0.51;100.00
65897;BME280;52677;50.898;10.854;2024-02-26T08:46:50;97104.91;;;0.53;100.00
65897;BME280;52677;50.898;10.854;2024-02-26T08:48:51;97105.47;;;0.59;100.00
65897;BME280;52677;50.898;10.854;2024-02-26T08:50:51;97108.72;;;0.64;100.00
65897;BME280;52677;50.898;10.854;2024-02-26T08:52:51;97108.81;;;0.68;100.00
65897;BME280;52677;50.898;10.854;2024-02-26T08:54:53;97115.59;;;0.74;100.00
65897;BME280;52677;50.898;10.854;2024-02-26T08:56:53;97121.94;;;0.78;100.00
65897;BME280;52677;50.898;10.854;2024-02-26T08:58:54;97118.97;;;0.83;100.00
65897;BME280;52677;50.898;10.854;2024-02-26T09:00:56;97115.53;;;0.86;100.00
65897;BME280;52677;50.898;10.854;2024-02-26T09:02:57;97130.03;;;0.90;100.00
65897;BME280;52677;50.898;10.854;2024-02-26T09:04:57;97127.00;;;0.92;100.00
65897;BME280;52677;50.898;10.854;2024-02-26T09:06:57;97124.69;;;0.94;100.00
65897;BME280;52677;50.898;10.854;2024-02-26T09:08:58;97127.50;;;0.97;100.00
65897;BME280;52677;50.898;10.854;2024-02-26T09:10:58;97124.44;;;0.99;100.00
65897;BME280;52677;50.898;10.854;2024-02-26T09:12:59;97124.91;;;1.01;100.00
65897;BME280;52677;50.898;10.854;2024-02-26T09:14:59;97123.84;;;1.05;100.00
65897;BME280;52677;50.898;10.854;2024-02-26T09:16:59;97118.75;;;1.04;100.00
65897;BME280;52677;50.898;10.854;2024-02-26T09:19:00;97125.53;;;1.10;100.00
65897;BME280;52677;50.898;10.854;2024-02-26T09:21:04;97123.31;;;1.16;100.00
65897;BME280;52677;50.898;10.854;2024-02-26T09:23:04;97114.13;;;1.20;100.00
65897;BME280;52677;50.898;10.854;2024-02-26T09:25:05;97118.16;;;1.26;100.00
65897;BME280;52677;50.898;10.854;2024-02-26T09:27:06;97116.16;;;1.39;100.00
65897;BME280;52677;50.898;10.854;2024-02-26T09:29:06;97111.66;;;1.47;100.00
65897;BME280;52677;50.898;10.854;2024-02-26T09:31:08;97113.84;;;1.57;100.00
65897;BME280;52677;50.898;10.854;2024-02-26T09:33:08;97115.28;;;1.66;100.00
65897;BME280;52677;50.898;10.854;2024-02-26T09:35:09;97109.34;;;1.80;100.00
65897;BME280;52677;50.898;10.854;2024-02-26T09:37:09;97114.19;;;1.87;100.00
65897;BME280;52677;50.898;10.854;2024-02-26T09:39:10;97111.81;;;2.01;100.00
65897;BME280;52677;50.898;10.854;2024-02-26T09:41:15;97112.41;;;2.10;100.00
65897;BME280;52677;50.898;10.854;2024-02-26T09:43:21;97113.25;;;2.14;100.00
65897;BME280;52677;50.898;10.854;2024-02-26T09:45:25;97107.97;;;2.21;100.00
65897;BME280;52677;50.898;10.854;2024-02-26T09:47:28;97110.41;;;2.27;100.00
65897;BME280;52677;50.898;10.854;2024-02-26T09:49:31;97107.41;;;2.32;100.00
65897;BME280;52677;50.898;10.854;2024-02-26T09:51:31;97102.56;;;2.41;100.00
65897;BME280;52677;50.898;10.854;2024-02-26T09:53:32;97106.13;;;2.45;100.00
65897;BME280;52677;50.898;10.854;2024-02-26T09:55:33;97109.06;;;2.56;100.00
65897;BME280;52677;50.898;10.854;2024-02-26T09:57:33;97109.22;;;2.63;100.00
65897;BME280;52677;50.898;10.854;2024-02-26T09:59:39;97111.47;;;2.76;100.00
65897;BME280;52677;50.898;10.854;2024-02-26T10:01:44;97104.56;;;2.83;100.00
65897;BME280;52677;50.898;10.854;2024-02-26T10:03:48;97105.59;;;2.97;100.00
65897;BME280;52677;50.898;10.854;2024-02-26T10:05:51;97109.72;;;3.07;100.00
65897;BME280;52677;50.898;10.854;2024-02-26T10:07:56;97113.00;;;3.16;100.00
65897;BME280;52677;50.898;10.854;2024-02-26T10:09:57;97116.94;;;3.19;100.00
65897;BME280;52677;50.898;10.854;2024-02-26T10:11:58;97121.34;;;3.23;100.00
65897;BME280;52677;50.898;10.854;2024-02-26T10:13:59;97128.16;;;3.33;100.00
65897;BME280;52677;50.898;10.854;2024-02-26T10:16:00;97122.72;;;3.36;100.00
65897;BME280;52677;50.898;10.854;2024-02-26T10:18:07;97136.97;;;3.46;100.00
65897;BME280;52677;50.898;10.854;2024-02-26T10:20:16;97140.59;;;3.53;100.00
65897;BME280;52677;50.898;10.854;2024-02-26T10:22:17;97142.63;;;3.56;100.00
65897;BME280;52677;50.898;10.854;2024-02-26T10:24:18;97138.41;;;3.62;100.00